createdAt,value
2023-06-23T08:23:02.523Z,42.309418
2023-06-23T08:23:45.544Z,42.228699
2023-06-23T08:24:46.118Z,42.067261
2023-06-23T08:25:46.642Z,42.422424
2023-06-23T08:26:47.202Z,42.196411
2023-06-23T08:28:48.244Z,42.438568
2023-06-23T08:29:48.807Z,42.729156
2023-06-23T08:30:49.360Z,43.003601
2023-06-23T08:31:49.996Z,42.858307
2023-06-23T08:32:50.496Z,43.42334
2023-06-23T08:33:50.974Z,43.407196
2023-06-23T08:34:51.556Z,43.568634
2023-06-23T08:35:52.103Z,43.42334
2023-06-23T08:36:52.595Z,43.391052
2023-06-23T08:37:53.143Z,43.052032
2023-06-23T08:38:53.699Z,43.003601
2023-06-23T08:39:54.233Z,42.680725
2023-06-23T08:40:54.759Z,42.729156
2023-06-23T08:41:55.308Z,42.777588
2023-06-23T08:42:55.910Z,42.890594
2023-06-23T08:43:56.400Z,43.100464
2023-06-23T08:44:56.942Z,43.181183
2023-06-23T08:45:57.509Z,43.487915
2023-06-23T08:47:06.027Z,43.391052
2023-06-23T08:47:58.692Z,43.617065
2023-06-23T08:48:59.104Z,44.133667
2023-06-23T08:49:59.648Z,43.617065
2023-06-23T08:51:00.201Z,43.713928
2023-06-23T08:52:00.733Z,43.923798
2023-06-23T08:53:01.293Z,43.89151
2023-06-23T08:54:01.824Z,43.455627
2023-06-23T08:55:02.366Z,43.600922
2023-06-23T08:56:02.924Z,44.02066
2023-06-23T08:57:03.457Z,44.101379
2023-06-23T08:58:03.990Z,44.23053
2023-06-23T08:59:04.569Z,43.923798
2023-06-23T09:00:05.075Z,44.133667
2023-06-23T09:01:05.651Z,44.214386
2023-06-23T09:02:06.187Z,44.666412
2023-06-23T09:03:06.802Z,44.488831
2023-06-23T09:04:09.664Z,44.537262
2023-06-23T09:05:07.792Z,44.456543
2023-06-23T09:06:08.338Z,44.343536
2023-06-23T09:07:08.874Z,44.617981
2023-06-23T09:08:09.423Z,44.440399
2023-06-23T09:09:09.968Z,44.617981
2023-06-23T09:10:10.500Z,44.634125
2023-06-23T09:11:11.321Z,44.860138
2023-06-23T09:12:11.597Z,45.086151
2023-06-23T09:13:12.142Z,45.715751
2023-06-23T09:14:12.668Z,45.409025
2023-06-23T09:15:13.213Z,45.974038
2023-06-23T09:16:13.796Z,45.409027
2023-06-23T09:17:14.310Z,45.651176
2023-06-23T09:18:14.834Z,45.65118
2023-06-23T09:19:16.493Z,45.893323
2023-06-23T09:20:15.929Z,45.667323
2023-06-23T09:21:16.485Z,45.586609
2023-06-23T09:23:17.565Z,45.828751
2023-06-23T09:24:18.116Z,45.602752
2023-06-23T09:25:18.648Z,45.828751
2023-06-23T09:26:19.196Z,45.764179
2023-06-23T09:27:19.730Z,45.376737
2023-06-23T09:28:20.281Z,45.877179
2023-06-23T09:29:20.835Z,46.313049
2023-06-23T09:31:21.918Z,46.022464
2023-06-23T09:32:22.477Z,45.893322
2023-06-23T09:33:22.990Z,45.957893
2023-06-23T09:34:23.547Z,46.070892
2023-06-23T09:35:24.088Z,45.828753
2023-06-23T09:36:24.615Z,45.538166
2023-06-23T09:37:25.158Z,45.586604
2023-06-23T09:38:25.711Z,46.506778
2023-06-23T09:39:26.252Z,46.458344
2023-06-23T09:40:26.796Z,46.10318
2023-06-23T09:41:30.011Z,46.506775
2023-06-23T09:42:27.879Z,46.474487
2023-06-23T09:43:28.424Z,46.280762
2023-06-23T09:44:28.963Z,46.748932
2023-06-23T09:45:29.508Z,45.925609
2023-06-23T09:46:30.050Z,46.070892
2023-06-23T09:47:30.613Z,46.296906
2023-06-23T09:48:31.127Z,46.555206
2023-06-23T09:49:31.686Z,46.603638
2023-06-23T09:50:32.483Z,46.926514
2023-06-23T09:51:32.764Z,46.748932
2023-06-23T09:52:33.297Z,46.474487
2023-06-23T09:53:33.851Z,46.797363
2023-06-23T09:54:34.419Z,46.991089
2023-06-23T09:55:34.931Z,46.539062
2023-06-23T09:56:36.212Z,46.474487
2023-06-23T09:57:36.015Z,46.57135
2023-06-23T09:58:36.561Z,46.458344
2023-06-23T09:59:37.097Z,46.555206
2023-06-23T10:00:37.656Z,46.426056
2023-06-23T10:01:38.241Z,46.555206
2023-06-23T10:02:38.799Z,46.4422
2023-06-23T10:03:39.419Z,46.635925
2023-06-23T10:04:39.815Z,46.135473
2023-06-23T10:05:40.370Z,46.151611
2023-06-23T10:05:46.275Z,46.151611
2023-06-23T10:06:30.597Z,46.151611
2023-06-23T10:06:40.923Z,46.474487
2023-06-23T10:07:41.446Z,46.539062
2023-06-23T10:08:05.961Z,46.539062
2023-06-23T10:08:43.026Z,46.991092
2023-06-23T10:09:19.395Z,46.991092
2023-06-23T10:09:42.535Z,46.845796
2023-06-23T10:10:25.332Z,46.7005
2023-06-23T10:10:34.447Z,46.7005
2023-06-23T10:10:43.079Z,46.9023
2023-06-23T10:11:43.621Z,47.06643533333334
2023-06-23T10:12:17.989Z,47.394706
2023-06-23T10:12:37.003Z,47.394706
2023-06-23T10:12:48.515Z,47.265549
2023-06-23T10:13:44.711Z,47.217113999999995
2023-06-23T10:14:45.248Z,47.31936433333333
2023-06-23T10:15:45.786Z,47.33416424999999
2023-06-23T10:16:46.341Z,47.3398148
2023-06-23T10:17:46.899Z,47.389323
2023-06-23T10:18:47.424Z,47.36472114285714
2023-06-23T10:19:47.981Z,47.362415
2023-06-23T10:20:48.506Z,47.27990011111112
2023-06-23T10:21:49.036Z,47.181600700000004
2023-06-23T10:22:49.589Z,47.0879651
2023-06-23T10:23:50.132Z,47.025003399999996
2023-06-23T10:24:50.682Z,46.923294399999996
2023-06-23T10:25:51.255Z,46.8667887
2023-06-23T10:26:51.766Z,46.832885499999996
2023-06-23T10:27:52.311Z,46.76669439999999
2023-06-23T10:28:52.853Z,46.711804699999995
2023-06-23T10:29:53.393Z,46.64722749999999
2023-06-23T10:30:53.941Z,46.7182624
2023-06-23T10:31:54.657Z,46.7828376
2023-06-23T10:32:55.034Z,46.815125300000005
2023-06-23T10:33:55.558Z,46.874859
2023-06-23T10:34:56.108Z,46.9055331
2023-06-23T10:35:56.639Z,46.88131739999999
2023-06-23T10:36:57.204Z,46.8700159
2023-06-23T10:37:57.741Z,46.78283919999999
2023-06-23T10:38:58.280Z,46.71826459999999
2023-06-23T10:39:58.815Z,46.6811344
2023-06-23T10:40:59.357Z,46.592341399999995
2023-06-23T10:41:59.927Z,46.5519818
2023-06-23T10:43:00.465Z,46.530994799999995
2023-06-23T10:44:00.988Z,46.4777187
2023-06-23T10:45:01.792Z,46.4551165
2023-06-23T10:46:02.067Z,46.406685100000004
2023-06-23T10:47:02.614Z,46.3598681
2023-06-23T10:48:03.210Z,46.4147564
2023-06-23T10:49:03.752Z,46.484174100000004
2023-06-23T10:50:04.245Z,46.4906314
2023-06-23T10:51:04.803Z,46.5761955
2023-06-23T10:52:05.340Z,46.576195500000004
2023-06-23T10:53:05.926Z,46.5713523
2023-06-23T10:54:06.426Z,46.593953600000006
2023-06-23T10:55:06.973Z,46.6294699
2023-06-23T10:56:10.097Z,46.642385
2023-06-23T10:57:08.060Z,46.64722810000001
2023-06-23T10:58:08.582Z,46.63754180000001
2023-06-23T11:00:09.683Z,46.631084300000005
2023-06-23T11:01:10.244Z,46.6439991
2023-06-23T11:02:10.757Z,46.563278100000005
2023-06-23T11:03:11.311Z,46.5665069
2023-06-23T11:04:11.853Z,46.5422912
2023-06-23T11:05:12.396Z,46.4712585
2023-06-23T11:06:12.961Z,46.413140899999995
2023-06-23T11:07:13.483Z,46.4341278
2023-06-23T11:08:14.012Z,46.451886
2023-06-23T11:09:14.557Z,46.498703600000006
2023-06-23T11:10:15.108Z,46.516461799999995
2023-06-23T11:11:15.640Z,46.563278800000006
2023-06-23T11:12:16.190Z,46.624625400000006
2023-06-23T11:13:16.738Z,46.671442400000004
2023-06-23T11:14:17.276Z,46.781221300000006
2023-06-23T11:15:18.209Z,46.91844639999999
2023-06-23T11:16:18.411Z,47.0136964
2023-06-23T11:17:18.914Z,47.1073325
2023-06-23T11:18:19.453Z,47.1993542
2023-06-23T11:19:20.001Z,47.1896677
2023-06-23T11:20:20.546Z,47.233257099999996
2023-06-23T11:21:21.075Z,47.2913773
2023-06-23T11:22:21.620Z,47.3317385
2023-06-23T11:23:22.160Z,47.3704861
2023-06-23T11:24:22.705Z,47.430220000000006
2023-06-23T11:25:23.244Z,47.44474960000001
2023-06-23T11:26:23.799Z,47.4528221
2023-06-23T11:27:24.337Z,47.4447497
2023-06-23T11:28:24.870Z,47.394702200000005
2023-06-23T11:30:25.964Z,47.4060029
2023-06-23T11:31:26.529Z,47.4124614
2023-06-23T11:32:27.064Z,47.41246149999999
2023-06-23T11:33:27.590Z,47.3769441
2023-06-23T11:34:28.135Z,47.3543413
2023-06-23T11:35:29.623Z,47.2429462
2023-06-23T11:36:29.223Z,47.139623900000004
2023-06-23T11:37:29.763Z,47.0782753
2023-06-23T11:38:30.300Z,47.0685889
2023-06-23T11:39:30.854Z,47.0766614
2023-06-23T11:40:31.622Z,47.041144700000004
2023-06-23T11:41:34.754Z,46.93136499999999
2023-06-23T11:42:32.483Z,46.8264277
2023-06-23T11:43:33.034Z,46.7182641
2023-06-23T11:44:33.562Z,46.6004141
2023-06-23T11:45:34.298Z,46.5051675
2023-06-23T11:46:34.703Z,46.455120699999995
2023-06-23T11:47:35.260Z,46.45189239999999
2023-06-23T11:48:35.736Z,46.440591
2023-06-23T11:49:36.271Z,46.3970018
2023-06-23T11:50:36.826Z,46.3889299
2023-06-23T11:51:37.380Z,46.4083022
2023-06-23T11:52:37.933Z,46.3711714
2023-06-23T11:53:38.468Z,46.3744
2023-06-23T11:54:39.007Z,46.3033696
2023-06-23T11:55:39.557Z,46.285612
2023-06-23T11:56:40.089Z,46.2468691
2023-06-23T11:57:40.624Z,46.0935056
2023-06-23T11:58:41.170Z,45.896553600000004
2023-06-23T11:59:41.715Z,45.715746100000004
2023-06-23T12:00:42.249Z,45.601127500000004
2023-06-23T12:02:43.354Z,45.473594500000004
2023-06-23T12:03:43.993Z,45.3363753
2023-06-23T12:04:44.541Z,45.273417
2023-06-23T12:05:44.980Z,45.2572732
2023-06-23T12:06:45.526Z,45.168483
2023-06-23T12:07:46.060Z,45.06677789999999
2023-06-23T12:08:46.603Z,44.99413080000001
2023-06-23T12:09:47.143Z,44.973143900000004
2023-06-23T12:10:47.694Z,44.9489282
2023-06-23T12:11:48.227Z,44.83592230000001
2023-06-23T12:12:48.780Z,44.7761903
2023-06-23T12:13:49.308Z,44.834308
2023-06-23T12:15:51.403Z,44.777804700000004
2023-06-23T12:16:50.962Z,44.74228839999999
2023-06-23T12:17:51.490Z,44.78910520000001
2023-06-23T12:18:52.034Z,44.7842621
2023-06-23T12:20:53.120Z,44.674484199999995
2023-06-23T12:21:53.658Z,44.6518829
2023-06-23T12:22:54.210Z,44.6809417
2023-06-23T12:23:54.749Z,44.6857848
2023-06-23T12:25:55.838Z,44.601837
2023-06-23T12:26:56.384Z,44.551791300000005
2023-06-23T12:27:56.926Z,44.4710723
2023-06-23T12:28:57.476Z,44.3548371
2023-06-23T12:29:58.021Z,44.2692749
2023-06-23T12:30:58.555Z,44.1740265
2023-06-23T12:31:59.131Z,44.0642486
2023-06-23T12:32:59.655Z,43.8915099
2023-06-23T12:34:00.177Z,43.66872550000001
2023-06-23T12:35:00.723Z,43.46692800000001
2023-06-23T12:36:01.263Z,43.26190180000001
2023-06-23T12:37:01.806Z,43.095620600000004
2023-06-23T12:38:02.361Z,42.97938520000001
2023-06-23T12:39:02.901Z,42.826019200000005
2023-06-23T12:40:03.443Z,42.7501434
2023-06-23T12:41:03.989Z,42.7210845
2023-06-23T12:42:04.533Z,42.6726532
2023-06-23T12:43:05.078Z,42.666195699999996
2023-06-23T12:44:05.613Z,42.6823395
2023-06-23T12:45:06.156Z,42.701712099999995
2023-06-23T12:47:07.247Z,42.7194703
2023-06-23T12:48:07.798Z,42.730771000000004
2023-06-23T12:49:08.332Z,42.682339600000006
2023-06-23T12:50:08.884Z,42.65973820000001
2023-06-23T12:51:09.411Z,42.595163
2023-06-23T12:52:09.971Z,42.5499604
2023-06-23T12:53:10.511Z,42.5418885
2023-06-23T12:54:11.066Z,42.511215299999996
2023-06-23T12:55:11.597Z,42.4530976
2023-06-23T12:56:12.144Z,42.3756074
2023-06-23T12:57:12.679Z,42.3013459
2023-06-23T12:58:13.217Z,42.22224129999999
2023-06-23T12:59:13.761Z,42.1883394
2023-06-23T13:00:14.320Z,42.109234799999996
2023-06-23T13:01:16.603Z,42.0269014
2023-06-23T13:02:15.518Z,41.930038599999996
2023-06-23T13:03:17.862Z,41.86062019999999
2023-06-23T13:04:16.596Z,41.825103899999995
2023-06-23T13:05:17.022Z,41.7992738
2023-06-23T13:06:17.641Z,41.766986200000005
2023-06-23T13:07:18.110Z,41.6846537
2023-06-23T13:08:18.656Z,41.582948900000005
2023-06-23T13:09:19.206Z,41.4102132
2023-06-23T13:10:19.732Z,41.3472548
2023-06-23T13:11:20.282Z,41.2713816
2023-06-23T13:12:20.813Z,41.17775049999999
2023-06-23T13:13:21.378Z,41.058289499999994
2023-06-23T13:14:21.915Z,40.91622689999999
2023-06-23T13:15:22.459Z,40.8177525
2023-06-23T13:16:22.991Z,40.7483356
2023-06-23T13:17:23.544Z,40.7402642
2023-06-23T13:18:24.763Z,40.6789197
2023-06-23T13:19:24.630Z,40.716050100000004
2023-06-23T13:20:25.158Z,40.6950638
2023-06-23T13:21:25.713Z,40.63533210000001
2023-06-23T13:22:26.259Z,40.582056900000005
2023-06-23T13:23:26.809Z,40.5594555
2023-06-23T13:24:27.341Z,40.5174816
2023-06-23T13:25:27.886Z,40.383486899999994
2023-06-23T13:26:28.425Z,40.1978359
2023-06-23T13:27:28.980Z,40.1187329
2023-06-23T13:28:29.519Z,40.0234833
2023-06-23T13:29:30.050Z,39.8378307
2023-06-23T13:30:30.597Z,39.6198895
2023-06-23T13:31:31.159Z,39.4277783
2023-06-23T13:32:31.721Z,39.2518118
2023-06-23T13:33:32.231Z,39.143648400000004
2023-06-23T13:34:32.774Z,39.0806884
2023-06-23T13:35:33.480Z,39.0435606
2023-06-23T13:36:33.868Z,38.9499257
2023-06-23T13:37:34.409Z,38.7335996
2023-06-23T13:38:34.940Z,38.6109073
2023-06-23T13:39:35.482Z,38.5495605
2023-06-23T13:40:36.022Z,38.5753908
2023-06-23T13:41:36.588Z,38.588305899999995
2023-06-23T13:42:37.128Z,38.618977799999996
2023-06-23T13:43:37.695Z,38.505971
2023-06-23T13:44:38.212Z,38.350989899999995
2023-06-23T13:45:38.752Z,38.29287
2023-06-23T13:46:39.294Z,38.32354360000001
2023-06-23T13:47:39.897Z,38.3461427
2023-06-23T13:48:40.389Z,38.2783393
2023-06-23T13:49:40.928Z,38.2363651
2023-06-23T13:50:41.477Z,38.202462499999996
2023-06-23T13:51:42.008Z,38.1491875
2023-06-23T13:52:42.586Z,38.0587834
2023-06-23T13:53:43.155Z,38.071699800000005
2023-06-23T13:54:43.629Z,38.041027
2023-06-23T13:55:44.192Z,37.981295700000004
2023-06-23T13:56:44.726Z,37.986139699999995
2023-06-23T13:57:46.375Z,37.942553000000004
2023-06-23T13:58:45.815Z,37.8553788
2023-06-23T13:59:46.355Z,37.7859625
2023-06-23T14:00:46.921Z,37.6971719
2023-06-23T14:01:47.446Z,37.6293691
2023-06-23T14:02:48.080Z,37.5486521
2023-06-23T14:03:50.205Z,37.4437169
2023-06-23T14:04:49.069Z,37.291966200000005
2023-06-23T14:05:53.415Z,37.18864570000001
2023-06-23T14:06:50.212Z,37.03204950000001
2023-06-23T14:07:50.696Z,36.919044
2023-06-23T14:08:51.237Z,36.8996706
2023-06-23T14:09:51.788Z,36.744689900000004
2023-06-23T14:10:52.342Z,36.6106987
2023-06-23T14:11:52.865Z,36.5703399
2023-06-23T14:12:53.422Z,36.6058543
2023-06-23T14:13:53.968Z,36.479934
2023-06-23T14:14:54.509Z,36.368542
2023-06-23T14:15:55.047Z,36.200647499999995
2023-06-23T14:16:55.602Z,36.0601989
2023-06-23T14:17:56.165Z,35.9794812
2023-06-23T14:18:56.676Z,35.979482399999995
2023-06-23T14:19:57.230Z,36.0230713
2023-06-23T14:20:57.754Z,35.9891679
2023-06-23T14:21:58.301Z,35.8793911
2023-06-23T14:22:58.848Z,35.745399400000004
2023-06-23T14:23:59.393Z,35.7114985
2023-06-23T14:24:59.947Z,35.698583400000004
2023-06-23T14:26:00.496Z,35.6582252
2023-06-23T14:27:01.063Z,35.6291651
2023-06-23T14:28:01.605Z,35.537144
2023-06-23T14:29:02.105Z,35.3934628
2023-06-23T14:30:02.708Z,35.2723831
2023-06-23T14:31:03.207Z,35.1480768
2023-06-23T14:32:03.782Z,34.9882536
2023-06-23T14:33:04.372Z,34.7993724
2023-06-23T14:34:05.206Z,34.6395488
2023-06-23T14:35:05.369Z,34.6024183
2023-06-23T14:36:05.914Z,34.524929
2023-06-23T14:37:06.449Z,34.3586496
2023-06-23T14:38:07.249Z,34.197213600000005
2023-06-23T14:39:07.545Z,34.0616075
2023-06-23T14:40:08.096Z,33.958289
2023-06-23T14:41:08.630Z,33.8694993
2023-06-23T14:42:09.181Z,33.8275256
2023-06-23T14:43:09.720Z,33.819453700000004
2023-06-23T14:44:10.250Z,33.81622490000001
2023-06-23T14:45:10.806Z,33.7532651
2023-06-23T14:46:11.343Z,33.609585300000006
2023-06-23T14:47:11.890Z,33.5207946
2023-06-23T14:48:12.492Z,33.4917358
2023-06-23T14:49:12.973Z,33.3496717
2023-06-23T14:50:13.511Z,33.20922230000001
2023-06-23T14:51:14.051Z,33.0929876
2023-06-23T14:52:14.697Z,33.0122686
2023-06-23T14:53:15.150Z,32.8992621
2023-06-23T14:54:15.677Z,32.778183999999996
2023-06-23T14:55:16.262Z,32.7426679
2023-06-23T14:56:16.773Z,32.784642
2023-06-23T14:57:17.309Z,32.6861674
2023-06-23T14:58:17.846Z,32.5328043
2023-06-23T14:59:18.404Z,32.397195800000006
2023-06-23T15:00:18.937Z,32.279344800000004
2023-06-23T15:01:19.524Z,32.195398700000005
2023-06-23T15:02:20.124Z,31.988759400000003
2023-06-23T15:03:22.160Z,31.683643299999993
2023-06-23T15:04:21.203Z,31.3865991
2023-06-23T15:05:21.655Z,30.995921899999995
2023-06-23T15:06:22.234Z,30.752151799999996
2023-06-23T15:07:22.887Z,30.7198632
2023-06-23T15:08:23.282Z,30.648830000000004
2023-06-23T15:09:23.826Z,30.4680217
2023-06-23T15:10:24.397Z,30.196810000000006
2023-06-23T15:11:24.910Z,29.923980600000004
2023-06-23T15:12:25.449Z,29.714113199999996
2023-06-23T15:13:26.009Z,29.565592499999998
2023-06-23T15:14:26.546Z,29.421915599999995
2023-06-23T15:15:27.092Z,29.2249617
2023-06-23T15:16:27.635Z,28.945676000000002
2023-06-23T15:17:28.182Z,28.542082699999998
2023-06-23T15:18:28.718Z,28.5436965
2023-06-23T15:19:29.263Z,28.7987684
2023-06-23T15:20:30.116Z,28.953746400000007
2023-06-23T15:21:30.347Z,28.900473899999998
2023-06-23T15:22:30.895Z,29.007021399999996
2023-06-23T15:23:31.435Z,29.161999400000003
2023-06-23T15:24:31.997Z,29.2443306
2023-06-23T15:25:32.795Z,29.489714300000003
2023-06-23T15:26:33.050Z,29.672138
2023-06-23T15:27:33.614Z,29.831961200000002
2023-06-23T15:28:34.147Z,29.473570700000003
2023-06-23T15:29:34.703Z,28.9569699
2023-06-23T15:30:35.252Z,28.9085395
2023-06-23T15:31:35.800Z,29.1393918
2023-06-23T15:32:36.352Z,29.237868799999994
2023-06-23T15:33:36.863Z,29.4525828
2023-06-23T15:34:37.425Z,29.673751499999998
2023-06-23T15:35:37.952Z,29.685052000000002
2023-06-23T15:36:38.501Z,29.5946475
2023-06-23T15:37:39.043Z,29.6140194
2023-06-23T15:38:39.592Z,29.969181499999998
2023-06-23T15:39:40.136Z,30.364703399999996
2023-06-23T15:40:40.692Z,30.4421922
2023-06-23T15:41:41.222Z,30.4308917
2023-06-23T15:42:41.755Z,30.4647937
2023-06-23T15:43:42.297Z,30.396988900000004
2023-06-23T15:44:42.833Z,30.3081977
2023-06-23T15:45:43.418Z,30.329185400000007
2023-06-23T15:46:43.926Z,30.4567195
2023-06-23T15:47:44.498Z,30.618157199999995
2023-06-23T15:48:45.015Z,30.682732199999993
2023-06-23T15:49:45.548Z,30.807039299999996
2023-06-23T15:50:46.093Z,30.905515599999994
2023-06-23T15:51:46.641Z,31.00237930000001
2023-06-23T15:52:47.174Z,31.055654500000003
2023-06-23T15:53:47.726Z,31.134759300000002
2023-06-23T15:54:48.266Z,31.3995164
2023-06-23T15:55:48.803Z,31.627142199999998
2023-06-23T15:56:49.378Z,31.8337846
2023-06-23T15:57:49.895Z,31.967777800000004
2023-06-23T15:58:50.457Z,31.99038010000001
2023-06-23T15:59:52.209Z,32.004908799999995
2023-06-23T16:00:51.528Z,32.1227587
2023-06-23T16:01:52.075Z,32.184105
2023-06-23T16:02:52.638Z,32.2712795
2023-06-23T16:03:53.236Z,32.308408199999995
2023-06-23T16:04:53.704Z,32.295493199999996
2023-06-23T16:05:54.238Z,32.3277808
2023-06-23T16:06:54.793Z,32.431098500000004
2023-06-23T16:07:55.326Z,32.405269700000005
2023-06-23T16:08:55.874Z,32.4391716
2023-06-23T16:09:56.474Z,32.4698453
2023-06-23T16:10:56.970Z,32.4359446
2023-06-23T16:11:57.496Z,32.435944600000006
2023-06-23T16:12:58.045Z,32.2357636
2023-06-23T16:13:58.584Z,31.9790794
2023-06-23T16:14:59.144Z,31.7159371
2023-06-23T16:15:59.686Z,31.462480199999998
2023-06-23T16:17:00.211Z,31.2154815
2023-06-23T16:18:00.775Z,31.1315312
2023-06-23T16:19:01.327Z,31.028208900000003
2023-06-23T16:20:01.853Z,30.868384600000002
2023-06-23T16:21:02.416Z,30.734389699999998
2023-06-23T16:22:05.039Z,30.545506599999992
2023-06-23T16:23:03.482Z,30.568107400000002
2023-06-23T16:24:04.030Z,30.648825499999997
2023-06-23T16:25:04.560Z,30.6472118
2023-06-23T16:26:05.120Z,30.6246109
2023-06-23T16:27:05.645Z,30.592321700000003
2023-06-23T16:28:06.254Z,30.4438013
2023-06-23T16:29:06.737Z,30.314652000000002
2023-06-23T16:30:07.281Z,30.233933099999994
2023-06-23T16:31:07.841Z,30.119314299999996
2023-06-23T16:32:08.358Z,30.051511500000004
2023-06-23T16:33:08.906Z,29.991778399999998
2023-06-23T16:34:09.446Z,29.891687499999996
2023-06-23T16:35:09.998Z,29.819040499999993
2023-06-23T16:36:10.531Z,29.754466400000002
2023-06-23T16:37:11.092Z,29.697964999999993
2023-06-23T16:38:11.620Z,29.670520599999996
2023-06-23T16:39:12.160Z,29.631776199999997
2023-06-23T16:40:12.710Z,29.5768887
2023-06-23T16:41:13.248Z,29.605946
2023-06-23T16:42:13.800Z,29.526842699999996
2023-06-23T16:43:14.339Z,29.4719561
2023-06-23T16:44:14.873Z,29.4315973
2023-06-23T16:45:15.433Z,29.397696000000003
2023-06-23T16:46:15.978Z,29.323435699999997
2023-06-23T16:47:16.565Z,29.221732100000008
2023-06-23T16:48:17.059Z,29.182987000000004
2023-06-23T16:49:17.600Z,29.1426277
2023-06-23T16:50:18.137Z,29.069982
2023-06-23T16:51:23.019Z,28.9053176
2023-06-23T16:52:19.222Z,28.8730298
2023-06-23T16:53:19.760Z,28.753566700000004
2023-06-23T16:54:20.330Z,28.7132072
2023-06-23T16:55:20.847Z,28.647018000000003
2023-06-23T16:56:21.404Z,28.635716999999993
2023-06-23T16:57:21.955Z,28.6082722
2023-06-23T16:58:22.474Z,28.5146399
2023-06-23T16:59:23.030Z,28.441995699999996
2023-06-23T17:00:23.573Z,28.4290811
2023-06-23T17:01:24.138Z,28.4274677
2023-06-23T17:02:24.735Z,28.3822669
2023-06-23T17:03:25.231Z,28.377423600000004
2023-06-23T17:04:25.755Z,28.327378899999996
2023-06-23T17:05:26.282Z,28.330607300000004
2023-06-23T17:06:26.821Z,28.272490400000002
2023-06-23T17:07:27.490Z,28.217601300000005
2023-06-23T17:08:27.904Z,28.1949986
2023-06-23T17:09:28.463Z,28.164323000000003
2023-06-23T17:10:28.996Z,28.141721699999998
2023-06-23T17:11:29.549Z,28.115891700000002
2023-06-23T17:12:30.090Z,28.070686799999997
2023-06-23T17:13:30.614Z,28.0174129
2023-06-23T17:14:32.840Z,27.9560662
2023-06-23T17:15:31.829Z,27.841446299999994
2023-06-23T17:16:32.253Z,27.702608799999997
2023-06-23T17:17:32.803Z,27.596058900000003
2023-06-23T17:18:33.348Z,27.5185683
2023-06-23T17:19:33.893Z,27.4200906
2023-06-23T17:20:34.417Z,27.2199065
2023-06-23T17:21:34.968Z,27.0729961
2023-06-23T17:22:35.507Z,26.972904399999997
2023-06-23T17:23:36.063Z,26.901870199999998
2023-06-23T17:25:37.148Z,26.8695818
2023-06-23T17:26:37.687Z,26.8308356
2023-06-23T17:27:38.286Z,26.943844000000002
2023-06-23T17:28:38.766Z,27.0503942
2023-06-23T17:29:39.325Z,27.1198128
2023-06-23T17:30:39.853Z,27.1973031
2023-06-23T17:31:40.461Z,27.331295899999997
2023-06-23T17:32:41.009Z,27.4265444
2023-06-23T17:33:41.476Z,27.544395
2023-06-23T17:34:42.029Z,27.6218866
2023-06-23T17:35:42.572Z,27.6331878
2023-06-23T17:36:43.121Z,27.6412597
2023-06-23T17:37:43.659Z,27.546009500000004
2023-06-23T17:38:44.205Z,27.5314796
2023-06-23T17:39:44.746Z,27.5589254
2023-06-23T17:40:45.302Z,27.6041309
2023-06-23T17:41:45.832Z,27.5976739
2023-06-23T17:42:46.412Z,27.550856800000002
2023-06-23T17:43:46.927Z,27.4911239
2023-06-23T17:44:47.456Z,27.433004800000003
2023-06-23T17:45:48.002Z,27.3926448
2023-06-23T17:46:48.550Z,27.3506709
2023-06-23T17:47:49.120Z,27.3232264
2023-06-23T17:48:49.633Z,27.224748599999998
2023-06-23T17:49:50.169Z,27.092367799999998
2023-06-23T17:50:50.721Z,26.9293125
2023-06-23T17:51:51.263Z,26.832449200000003
2023-06-23T17:52:51.794Z,26.8066192
2023-06-23T17:53:52.347Z,26.7711028
2023-06-23T17:54:52.881Z,26.706527599999998
2023-06-23T17:55:53.442Z,26.6161223
2023-06-23T17:56:53.994Z,26.5757628
2023-06-23T17:57:54.526Z,26.558004700000005
2023-06-23T17:58:55.064Z,26.561233499999997
2023-06-23T17:59:55.597Z,26.541861
2023-06-23T18:00:56.151Z,26.549932899999998
2023-06-23T18:01:56.685Z,26.5273322
2023-06-23T18:02:57.288Z,26.4708293
2023-06-23T18:03:57.775Z,26.433698599999996
2023-06-23T18:04:58.321Z,26.380424800000004
2023-06-23T18:05:58.861Z,26.380424800000004
2023-06-23T18:06:59.456Z,26.3658954
2023-06-23T18:07:59.944Z,26.301322100000004
2023-06-23T18:09:00.526Z,26.2060766
2023-06-23T18:10:02.236Z,26.147961300000002
2023-06-23T18:11:01.574Z,26.109217000000008
2023-06-23T18:12:02.123Z,26.0866165
2023-06-23T18:13:02.652Z,26.0882308
2023-06-23T18:14:03.217Z,25.9962126
2023-06-23T18:15:03.746Z,25.931638300000003
2023-06-23T18:16:04.295Z,25.871909000000006
2023-06-23T18:17:04.834Z,25.8234806
2023-06-23T18:18:05.400Z,25.763748
2023-06-23T18:19:05.923Z,25.6991711
2023-06-23T18:20:06.467Z,25.6249082
2023-06-23T18:21:07.009Z,25.5409613
2023-06-23T18:22:07.575Z,25.4360273
2023-06-23T18:23:08.093Z,25.284278299999997
2023-06-23T18:24:08.634Z,25.1712733
2023-06-23T18:25:09.192Z,25.055039400000002
2023-06-23T18:34:04.477Z,24.814497100000004
2023-06-23T18:34:04.602Z,24.719250300000006
2023-06-23T18:34:04.761Z,24.667592000000003
2023-06-23T18:34:04.899Z,24.622391400000005
2023-06-23T18:34:05.032Z,24.5271444
2023-06-23T18:41:45.944Z,24.5868763
2023-06-23T18:42:46.481Z,24.565889199999997
2023-06-23T18:43:47.027Z,24.586876099999994
2023-06-23T18:44:47.563Z,24.5675036
2023-06-23T18:45:48.114Z,24.483555900000002
2023-06-23T18:46:48.652Z,24.415751900000004
2023-06-23T18:47:49.236Z,24.359248700000002
2023-06-23T18:48:49.733Z,24.284987200000003
2023-06-23T18:49:50.285Z,24.157451200000004
2023-06-23T18:50:50.824Z,24.052516500000003
2023-06-23T18:51:51.368Z,23.823274700000002
2023-06-23T18:52:51.911Z,23.707038800000003
2023-06-23T18:53:52.460Z,23.5488279
2023-06-23T18:55:53.539Z,23.4132173
2023-06-23T18:56:54.078Z,23.3050522
2023-06-23T18:57:54.674Z,23.216258699999997
2023-06-23T18:58:55.156Z,23.0515917
2023-06-23T18:59:55.722Z,22.8901535
2023-06-23T19:00:56.246Z,22.781989900000003